sensor_id;sensor_type;location;lat;lon;timestamp;P1;durP1;ratioP1;P2;durP2;ratioP2
26080;SDS011;13991;51.174;4.438;2023-03-15T00:00:47;11.33;;;2.13;;
26080;SDS011;13991;51.174;4.438;2023-03-15T00:03:13;9.57;;;1.90;;
26080;SDS011;13991;51.174;4.438;2023-03-15T00:05:43;8.80;;;2.10;;
26080;SDS011;13991;51.174;4.438;2023-03-15T00:08:10;5.13;;;1.40;;
26080;SDS011;13991;51.174;4.438;2023-03-15T00:10:39;10.00;;;2.13;;
26080;SDS011;13991;51.174;4.438;2023-03-15T00:13:08;9.80;;;1.93;;
26080;SDS011;13991;51.174;4.438;2023-03-15T00:15:35;8.73;;;1.70;;
26080;SDS011;13991;51.174;4.438;2023-03-15T00:18:08;9.17;;;1.40;;
26080;SDS011;13991;51.174;4.438;2023-03-15T00:20:35;6.37;;;1.67;;
26080;SDS011;13991;51.174;4.438;2023-03-15T00:23:01;9.43;;;2.30;;
26080;SDS011;13991;51.174;4.438;2023-03-15T00:25:27;6.27;;;2.30;;
26080;SDS011;13991;51.174;4.438;2023-03-15T00:27:53;14.77;;;2.77;;
26080;SDS011;13991;51.174;4.438;2023-03-15T00:30:19;11.93;;;2.00;;
26080;SDS011;13991;51.174;4.438;2023-03-15T00:32:44;3.67;;;1.80;;
26080;SDS011;13991;51.174;4.438;2023-03-15T00:35:13;10.73;;;2.50;;
26080;SDS011;13991;51.174;4.438;2023-03-15T00:37:42;8.60;;;2.10;;
26080;SDS011;13991;51.174;4.438;2023-03-15T00:40:08;6.37;;;2.40;;
26080;SDS011;13991;51.174;4.438;2023-03-15T00:42:34;5.17;;;2.00;;
26080;SDS011;13991;51.174;4.438;2023-03-15T00:45:00;4.60;;;2.73;;
26080;SDS011;13991;51.174;4.438;2023-03-15T00:47:25;7.00;;;2.67;;
26080;SDS011;13991;51.174;4.438;2023-03-15T00:49:51;8.00;;;3.17;;
26080;SDS011;13991;51.174;4.438;2023-03-15T00:52:17;6.67;;;3.17;;
26080;SDS011;13991;51.174;4.438;2023-03-15T00:54:43;7.00;;;3.27;;
26080;SDS011;13991;51.174;4.438;2023-03-15T00:57:16;7.77;;;3.73;;
26080;SDS011;13991;51.174;4.438;2023-03-15T00:59:41;7.43;;;3.90;;
26080;SDS011;13991;51.174;4.438;2023-03-15T01:02:09;10.60;;;4.37;;
26080;SDS011;13991;51.174;4.438;2023-03-15T01:04:35;15.00;;;4.43;;
26080;SDS011;13991;51.174;4.438;2023-03-15T01:07:01;8.93;;;4.23;;
26080;SDS011;13991;51.174;4.438;2023-03-15T01:09:27;9.80;;;4.43;;
26080;SDS011;13991;51.174;4.438;2023-03-15T01:11:54;12.97;;;5.13;;
26080;SDS011;13991;51.174;4.438;2023-03-15T01:14:20;7.70;;;5.50;;
26080;SDS011;13991;51.174;4.438;2023-03-15T01:16:45;9.17;;;4.70;;
26080;SDS011;13991;51.174;4.438;2023-03-15T01:19:11;14.03;;;5.83;;
26080;SDS011;13991;51.174;4.438;2023-03-15T01:21:37;11.33;;;5.30;;
26080;SDS011;13991;51.174;4.438;2023-03-15T01:24:03;10.67;;;6.10;;
26080;SDS011;13991;51.174;4.438;2023-03-15T01:26:29;16.50;;;6.73;;
26080;SDS011;13991;51.174;4.438;2023-03-15T01:28:55;12.30;;;6.83;;
26080;SDS011;13991;51.174;4.438;2023-03-15T01:31:25;12.67;;;6.47;;
26080;SDS011;13991;51.174;4.438;2023-03-15T01:33:52;14.90;;;6.40;;
26080;SDS011;13991;51.174;4.438;2023-03-15T01:36:19;10.90;;;6.20;;
26080;SDS011;13991;51.174;4.438;2023-03-15T01:38:44;13.03;;;7.17;;
26080;SDS011;13991;51.174;4.438;2023-03-15T01:41:11;13.23;;;7.20;;
26080;SDS011;13991;51.174;4.438;2023-03-15T01:43:38;15.30;;;6.97;;
26080;SDS011;13991;51.174;4.438;2023-03-15T01:48:40;13.83;;;7.20;;
26080;SDS011;13991;51.174;4.438;2023-03-15T01:51:17;18.20;;;7.00;;
26080;SDS011;13991;51.174;4.438;2023-03-15T01:54:23;13.83;;;6.30;;
26080;SDS011;13991;51.174;4.438;2023-03-15T01:59:22;11.83;;;7.03;;
26080;SDS011;13991;51.174;4.438;2023-03-15T02:01:57;14.10;;;7.50;;
26080;SDS011;13991;51.174;4.438;2023-03-15T02:04:27;13.40;;;6.37;;
26080;SDS011;13991;51.174;4.438;2023-03-15T02:07:06;14.00;;;6.63;;
26080;SDS011;13991;51.174;4.438;2023-03-15T02:09:39;17.83;;;6.73;;
26080;SDS011;13991;51.174;4.438;2023-03-15T02:12:14;22.73;;;6.93;;
26080;SDS011;13991;51.174;4.438;2023-03-15T02:14:42;14.10;;;6.53;;
26080;SDS011;13991;51.174;4.438;2023-03-15T02:17:08;15.20;;;6.73;;
26080;SDS011;13991;51.174;4.438;2023-03-15T02:19:55;22.67;;;7.17;;
26080;SDS011;13991;51.174;4.438;2023-03-15T02:22:51;14.03;;;6.43;;
26080;SDS011;13991;51.174;4.438;2023-03-15T02:28:03;15.63;;;6.37;;
26080;SDS011;13991;51.174;4.438;2023-03-15T02:30:31;14.00;;;6.47;;
26080;SDS011;13991;51.174;4.438;2023-03-15T02:32:58;15.47;;;6.57;;
26080;SDS011;13991;51.174;4.438;2023-03-15T02:35:26;17.50;;;7.67;;
26080;SDS011;13991;51.174;4.438;2023-03-15T02:37:54;15.00;;;6.97;;
26080;SDS011;13991;51.174;4.438;2023-03-15T02:40:21;17.47;;;7.17;;
26080;SDS011;13991;51.174;4.438;2023-03-15T02:42:50;14.27;;;6.73;;
26080;SDS011;13991;51.174;4.438;2023-03-15T02:45:19;21.07;;;7.80;;
26080;SDS011;13991;51.174;4.438;2023-03-15T02:47:46;20.00;;;7.67;;
26080;SDS011;13991;51.174;4.438;2023-03-15T02:50:13;14.03;;;7.30;;
26080;SDS011;13991;51.174;4.438;2023-03-15T02:52:38;15.90;;;7.03;;
26080;SDS011;13991;51.174;4.438;2023-03-15T02:55:04;18.53;;;8.57;;
26080;SDS011;13991;51.174;4.438;2023-03-15T02:57:30;19.07;;;7.03;;
26080;SDS011;13991;51.174;4.438;2023-03-15T02:59:56;15.53;;;6.30;;
26080;SDS011;13991;51.174;4.438;2023-03-15T03:02:23;17.70;;;7.80;;
26080;SDS011;13991;51.174;4.438;2023-03-15T03:04:49;19.27;;;7.83;;
26080;SDS011;13991;51.174;4.438;2023-03-15T03:07:16;15.53;;;7.43;;
26080;SDS011;13991;51.174;4.438;2023-03-15T03:09:42;14.67;;;7.43;;
26080;SDS011;13991;51.174;4.438;2023-03-15T03:12:08;18.77;;;8.07;;
26080;SDS011;13991;51.174;4.438;2023-03-15T03:14:34;22.10;;;8.10;;
26080;SDS011;13991;51.174;4.438;2023-03-15T03:17:00;22.73;;;8.33;;
26080;SDS011;13991;51.174;4.438;2023-03-15T03:19:25;16.27;;;7.37;;
26080;SDS011;13991;51.174;4.438;2023-03-15T03:21:52;16.43;;;7.87;;
26080;SDS011;13991;51.174;4.438;2023-03-15T03:24:18;17.97;;;8.00;;
26080;SDS011;13991;51.174;4.438;2023-03-15T03:26:44;17.30;;;8.10;;
26080;SDS011;13991;51.174;4.438;2023-03-15T03:29:10;19.30;;;8.33;;
26080;SDS011;13991;51.174;4.438;2023-03-15T03:31:36;19.47;;;8.03;;
26080;SDS011;13991;51.174;4.438;2023-03-15T03:34:02;15.87;;;8.23;;
26080;SDS011;13991;51.174;4.438;2023-03-15T03:36:27;22.47;;;8.33;;
26080;SDS011;13991;51.174;4.438;2023-03-15T03:38:53;20.10;;;7.90;;
26080;SDS011;13991;51.174;4.438;2023-03-15T03:41:20;16.37;;;8.07;;
26080;SDS011;13991;51.174;4.438;2023-03-15T03:43:46;19.33;;;8.53;;
26080;SDS011;13991;51.174;4.438;2023-03-15T03:46:12;17.13;;;8.10;;
26080;SDS011;13991;51.174;4.438;2023-03-15T03:48:38;25.67;;;10.00;;
26080;SDS011;13991;51.174;4.438;2023-03-15T03:51:03;21.40;;;8.97;;
26080;SDS011;13991;51.174;4.438;2023-03-15T03:53:29;30.40;;;10.23;;
26080;SDS011;13991;51.174;4.438;2023-03-15T03:55:55;22.27;;;9.67;;
26080;SDS011;13991;51.174;4.438;2023-03-15T03:58:21;18.30;;;8.73;;
26080;SDS011;13991;51.174;4.438;2023-03-15T04:00:46;19.83;;;8.43;;
26080;SDS011;13991;51.174;4.438;2023-03-15T04:03:12;24.93;;;8.27;;
26080;SDS011;13991;51.174;4.438;2023-03-15T04:05:38;20.10;;;7.90;;
26080;SDS011;13991;51.174;4.438;2023-03-15T04:08:05;21.77;;;8.97;;
26080;SDS011;13991;51.174;4.438;2023-03-15T04:10:31;18.43;;;7.97;;
26080;SDS011;13991;51.174;4.438;2023-03-15T04:12:59;22.77;;;8.37;;
26080;SDS011;13991;51.174;4.438;2023-03-15T04:15:25;24.97;;;8.93;;
26080;SDS011;13991;51.174;4.438;2023-03-15T04:17:51;29.37;;;9.77;;
26080;SDS011;13991;51.174;4.438;2023-03-15T04:20:20;19.47;;;8.70;;
26080;SDS011;13991;51.174;4.438;2023-03-15T04:22:46;18.57;;;8.03;;
26080;SDS011;13991;51.174;4.438;2023-03-15T04:25:16;21.10;;;8.27;;
26080;SDS011;13991;51.174;4.438;2023-03-15T04:27:44;18.23;;;7.93;;
26080;SDS011;13991;51.174;4.438;2023-03-15T04:30:10;15.97;;;7.33;;
26080;SDS011;13991;51.174;4.438;2023-03-15T04:32:36;27.87;;;7.87;;
26080;SDS011;13991;51.174;4.438;2023-03-15T04:35:03;26.50;;;8.73;;
26080;SDS011;13991;51.174;4.438;2023-03-15T04:37:29;23.90;;;9.10;;
26080;SDS011;13991;51.174;4.438;2023-03-15T04:39:56;16.37;;;7.63;;
26080;SDS011;13991;51.174;4.438;2023-03-15T04:42:22;22.13;;;8.97;;
26080;SDS011;13991;51.174;4.438;2023-03-15T04:44:50;16.07;;;7.67;;
26080;SDS011;13991;51.174;4.438;2023-03-15T04:47:16;27.23;;;9.20;;
26080;SDS011;13991;51.174;4.438;2023-03-15T04:49:41;21.73;;;8.23;;
26080;SDS011;13991;51.174;4.438;2023-03-15T04:52:07;17.73;;;7.90;;
26080;SDS011;13991;51.174;4.438;2023-03-15T04:54:33;19.23;;;8.10;;
26080;SDS011;13991;51.174;4.438;2023-03-15T04:56:58;19.43;;;7.80;;
26080;SDS011;13991;51.174;4.438;2023-03-15T04:59:24;18.43;;;8.33;;
26080;SDS011;13991;51.174;4.438;2023-03-15T05:01:50;16.33;;;7.60;;
26080;SDS011;13991;51.174;4.438;2023-03-15T05:04:15;19.93;;;8.57;;
26080;SDS011;13991;51.174;4.438;2023-03-15T05:06:41;19.27;;;8.87;;
26080;SDS011;13991;51.174;4.438;2023-03-15T05:09:07;22.97;;;8.17;;
26080;SDS011;13991;51.174;4.438;2023-03-15T05:11:32;15.87;;;8.23;;
26080;SDS011;13991;51.174;4.438;2023-03-15T05:13:58;15.93;;;8.63;;
26080;SDS011;13991;51.174;4.438;2023-03-15T05:16:24;16.67;;;8.40;;
26080;SDS011;13991;51.174;4.438;2023-03-15T05:18:49;20.97;;;9.83;;
26080;SDS011;13991;51.174;4.438;2023-03-15T05:21:15;14.73;;;8.43;;
26080;SDS011;13991;51.174;4.438;2023-03-15T05:23:41;27.37;;;9.57;;
26080;SDS011;13991;51.174;4.438;2023-03-15T05:26:07;17.17;;;8.17;;
26080;SDS011;13991;51.174;4.438;2023-03-15T05:28:32;29.53;;;9.97;;
26080;SDS011;13991;51.174;4.438;2023-03-15T05:30:58;28.97;;;9.03;;
26080;SDS011;13991;51.174;4.438;2023-03-15T05:33:26;27.83;;;10.47;;
26080;SDS011;13991;51.174;4.438;2023-03-15T05:35:52;20.73;;;10.03;;
26080;SDS011;13991;51.174;4.438;2023-03-15T05:38:19;24.53;;;10.50;;
26080;SDS011;13991;51.174;4.438;2023-03-15T05:40:50;27.93;;;11.00;;
26080;SDS011;13991;51.174;4.438;2023-03-15T05:43:16;25.50;;;10.73;;
26080;SDS011;13991;51.174;4.438;2023-03-15T05:45:42;23.57;;;9.20;;
26080;SDS011;13991;51.174;4.438;2023-03-15T05:48:08;24.77;;;9.90;;
26080;SDS011;13991;51.174;4.438;2023-03-15T05:50:34;17.63;;;9.27;;
26080;SDS011;13991;51.174;4.438;2023-03-15T05:53:00;28.53;;;9.47;;
26080;SDS011;13991;51.174;4.438;2023-03-15T05:55:26;20.93;;;9.83;;
26080;SDS011;13991;51.174;4.438;2023-03-15T05:57:52;20.63;;;8.87;;
26080;SDS011;13991;51.174;4.438;2023-03-15T06:00:17;22.30;;;9.43;;
26080;SDS011;13991;51.174;4.438;2023-03-15T06:02:44;19.43;;;9.07;;
26080;SDS011;13991;51.174;4.438;2023-03-15T06:05:10;20.33;;;9.53;;
26080;SDS011;13991;51.174;4.438;2023-03-15T06:07:36;20.50;;;8.57;;
26080;SDS011;13991;51.174;4.438;2023-03-15T06:10:02;18.13;;;8.13;;
26080;SDS011;13991;51.174;4.438;2023-03-15T06:12:28;25.20;;;9.57;;
26080;SDS011;13991;51.174;4.438;2023-03-15T06:14:53;20.33;;;9.53;;
26080;SDS011;13991;51.174;4.438;2023-03-15T06:17:19;19.90;;;8.93;;
26080;SDS011;13991;51.174;4.438;2023-03-15T06:19:45;18.97;;;8.73;;
26080;SDS011;13991;51.174;4.438;2023-03-15T06:22:10;22.50;;;9.30;;
26080;SDS011;13991;51.174;4.438;2023-03-15T06:24:36;18.60;;;8.97;;
26080;SDS011;13991;51.174;4.438;2023-03-15T06:27:02;19.73;;;8.80;;
26080;SDS011;13991;51.174;4.438;2023-03-15T06:29:28;15.63;;;7.47;;
26080;SDS011;13991;51.174;4.438;2023-03-15T06:31:54;15.93;;;8.67;;
26080;SDS011;13991;51.174;4.438;2023-03-15T06:34:20;15.97;;;8.90;;
26080;SDS011;13991;51.174;4.438;2023-03-15T06:36:46;23.70;;;9.60;;
26080;SDS011;13991;51.174;4.438;2023-03-15T06:39:13;21.13;;;8.63;;
26080;SDS011;13991;51.174;4.438;2023-03-15T06:41:40;23.47;;;8.90;;
26080;SDS011;13991;51.174;4.438;2023-03-15T06:44:06;26.20;;;8.33;;
26080;SDS011;13991;51.174;4.438;2023-03-15T06:46:32;23.37;;;8.67;;
26080;SDS011;13991;51.174;4.438;2023-03-15T06:48:58;17.27;;;7.90;;
26080;SDS011;13991;51.174;4.438;2023-03-15T06:51:24;25.07;;;8.13;;
26080;SDS011;13991;51.174;4.438;2023-03-15T06:53:49;20.70;;;8.27;;
26080;SDS011;13991;51.174;4.438;2023-03-15T06:56:15;18.60;;;8.87;;
26080;SDS011;13991;51.174;4.438;2023-03-15T06:58:41;17.80;;;7.17;;
26080;SDS011;13991;51.174;4.438;2023-03-15T07:01:06;17.50;;;7.63;;
26080;SDS011;13991;51.174;4.438;2023-03-15T07:03:35;22.00;;;7.30;;
26080;SDS011;13991;51.174;4.438;2023-03-15T07:06:01;21.03;;;8.07;;
26080;SDS011;13991;51.174;4.438;2023-03-15T07:08:26;18.43;;;7.30;;
26080;SDS011;13991;51.174;4.438;2023-03-15T07:10:52;15.30;;;7.63;;
26080;SDS011;13991;51.174;4.438;2023-03-15T07:13:18;15.40;;;6.97;;
26080;SDS011;13991;51.174;4.438;2023-03-15T07:15:44;25.77;;;8.47;;
26080;SDS011;13991;51.174;4.438;2023-03-15T07:18:11;24.43;;;7.60;;
26080;SDS011;13991;51.174;4.438;2023-03-15T07:20:37;18.27;;;7.60;;
26080;SDS011;13991;51.174;4.438;2023-03-15T07:23:03;23.40;;;7.13;;
26080;SDS011;13991;51.174;4.438;2023-03-15T07:25:29;19.73;;;7.00;;
26080;SDS011;13991;51.174;4.438;2023-03-15T07:27:55;12.93;;;6.60;;
26080;SDS011;13991;51.174;4.438;2023-03-15T07:30:21;21.37;;;7.27;;
26080;SDS011;13991;51.174;4.438;2023-03-15T07:32:46;19.30;;;6.50;;
26080;SDS011;13991;51.174;4.438;2023-03-15T07:35:12;17.23;;;6.57;;
26080;SDS011;13991;51.174;4.438;2023-03-15T07:37:38;19.10;;;5.63;;
26080;SDS011;13991;51.174;4.438;2023-03-15T07:40:05;22.00;;;6.10;;
26080;SDS011;13991;51.174;4.438;2023-03-15T07:42:37;18.10;;;6.00;;
26080;SDS011;13991;51.174;4.438;2023-03-15T07:45:04;14.53;;;5.47;;
26080;SDS011;13991;51.174;4.438;2023-03-15T07:47:31;16.10;;;5.40;;
26080;SDS011;13991;51.174;4.438;2023-03-15T07:49:56;17.70;;;6.63;;
26080;SDS011;13991;51.174;4.438;2023-03-15T07:52:22;33.97;;;5.93;;
26080;SDS011;13991;51.174;4.438;2023-03-15T07:54:49;25.67;;;5.63;;
26080;SDS011;13991;51.174;4.438;2023-03-15T07:57:14;31.07;;;6.30;;
26080;SDS011;13991;51.174;4.438;2023-03-15T07:59:40;24.77;;;5.37;;
26080;SDS011;13991;51.174;4.438;2023-03-15T08:02:06;27.80;;;5.37;;
26080;SDS011;13991;51.174;4.438;2023-03-15T08:04:33;18.40;;;5.40;;
26080;SDS011;13991;51.174;4.438;2023-03-15T08:06:59;28.50;;;6.03;;
26080;SDS011;13991;51.174;4.438;2023-03-15T08:09:25;22.80;;;5.80;;
26080;SDS011;13991;51.174;4.438;2023-03-15T08:11:51;24.57;;;6.73;;
26080;SDS011;13991;51.174;4.438;2023-03-15T08:14:17;29.27;;;7.00;;
26080;SDS011;13991;51.174;4.438;2023-03-15T08:16:42;19.40;;;5.10;;
26080;SDS011;13991;51.174;4.438;2023-03-15T08:19:08;15.63;;;4.40;;
26080;SDS011;13991;51.174;4.438;2023-03-15T08:21:34;23.47;;;5.00;;
26080;SDS011;13991;51.174;4.438;2023-03-15T08:24:00;18.23;;;4.73;;
26080;SDS011;13991;51.174;4.438;2023-03-15T08:26:26;15.10;;;4.57;;
26080;SDS011;13991;51.174;4.438;2023-03-15T08:28:51;24.43;;;4.57;;
26080;SDS011;13991;51.174;4.438;2023-03-15T08:31:17;14.87;;;4.60;;
26080;SDS011;13991;51.174;4.438;2023-03-15T08:33:43;18.03;;;3.97;;
26080;SDS011;13991;51.174;4.438;2023-03-15T08:36:08;9.80;;;3.20;;
26080;SDS011;13991;51.174;4.438;2023-03-15T08:38:34;10.23;;;3.63;;
26080;SDS011;13991;51.174;4.438;2023-03-15T08:41:00;20.60;;;4.00;;
26080;SDS011;13991;51.174;4.438;2023-03-15T08:43:26;29.90;;;5.27;;
26080;SDS011;13991;51.174;4.438;2023-03-15T08:45:52;267.27;;;19.10;;
26080;SDS011;13991;51.174;4.438;2023-03-15T08:48:18;121.73;;;9.27;;
26080;SDS011;13991;51.174;4.438;2023-03-15T08:50:44;162.80;;;10.97;;
26080;SDS011;13991;51.174;4.438;2023-03-15T08:53:10;86.97;;;8.53;;
26080;SDS011;13991;51.174;4.438;2023-03-15T08:55:36;241.90;;;18.73;;
26080;SDS011;13991;51.174;4.438;2023-03-15T08:58:02;44.07;;;6.07;;
26080;SDS011;13991;51.174;4.438;2023-03-15T09:00:28;51.43;;;6.07;;
26080;SDS011;13991;51.174;4.438;2023-03-15T09:02:55;21.60;;;4.53;;
26080;SDS011;13991;51.174;4.438;2023-03-15T09:05:21;15.73;;;3.90;;
26080;SDS011;13991;51.174;4.438;2023-03-15T09:07:48;27.50;;;5.07;;
26080;SDS011;13991;51.174;4.438;2023-03-15T09:10:17;19.40;;;3.83;;
26080;SDS011;13991;51.174;4.438;2023-03-15T09:12:48;14.60;;;3.83;;
26080;SDS011;13991;51.174;4.438;2023-03-15T09:15:16;19.20;;;4.40;;
26080;SDS011;13991;51.174;4.438;2023-03-15T09:17:42;16.33;;;5.23;;
26080;SDS011;13991;51.174;4.438;2023-03-15T09:20:10;11.37;;;4.90;;
26080;SDS011;13991;51.174;4.438;2023-03-15T09:22:41;8.03;;;3.43;;
26080;SDS011;13991;51.174;4.438;2023-03-15T09:25:08;11.90;;;3.27;;
26080;SDS011;13991;51.174;4.438;2023-03-15T09:27:34;17.53;;;4.07;;
26080;SDS011;13991;51.174;4.438;2023-03-15T09:30:00;16.03;;;3.30;;
26080;SDS011;13991;51.174;4.438;2023-03-15T09:32:26;24.67;;;3.97;;
26080;SDS011;13991;51.174;4.438;2023-03-15T09:34:52;15.23;;;3.83;;
26080;SDS011;13991;51.174;4.438;2023-03-15T09:37:17;11.27;;;3.00;;
26080;SDS011;13991;51.174;4.438;2023-03-15T09:39:45;15.47;;;2.30;;
26080;SDS011;13991;51.174;4.438;2023-03-15T09:42:19;14.50;;;2.80;;
26080;SDS011;13991;51.174;4.438;2023-03-15T09:45:26;16.10;;;2.93;;
26080;SDS011;13991;51.174;4.438;2023-03-15T09:50:36;16.87;;;3.03;;
26080;SDS011;13991;51.174;4.438;2023-03-15T09:53:11;10.00;;;3.30;;
26080;SDS011;13991;51.174;4.438;2023-03-15T09:55:42;7.03;;;2.03;;
26080;SDS011;13991;51.174;4.438;2023-03-15T09:58:18;12.60;;;2.30;;
26080;SDS011;13991;51.174;4.438;2023-03-15T10:00:48;10.00;;;1.87;;
26080;SDS011;13991;51.174;4.438;2023-03-15T10:03:31;4.77;;;1.03;;
26080;SDS011;13991;51.174;4.438;2023-03-15T10:06:15;5.80;;;0.97;;
26080;SDS011;13991;51.174;4.438;2023-03-15T10:08:44;9.87;;;1.30;;
26080;SDS011;13991;51.174;4.438;2023-03-15T10:11:17;8.03;;;1.43;;
26080;SDS011;13991;51.174;4.438;2023-03-15T10:19:16;3.47;;;1.30;;
26080;SDS011;13991;51.174;4.438;2023-03-15T10:21:57;4.13;;;1.37;;
26080;SDS011;13991;51.174;4.438;2023-03-15T10:24:39;4.83;;;1.97;;
26080;SDS011;13991;51.174;4.438;2023-03-15T10:30:12;9.90;;;1.80;;
26080;SDS011;13991;51.174;4.438;2023-03-15T10:32:44;13.30;;;1.87;;
26080;SDS011;13991;51.174;4.438;2023-03-15T10:35:18;2.50;;;1.40;;
26080;SDS011;13991;51.174;4.438;2023-03-15T10:37:44;4.13;;;1.33;;
26080;SDS011;13991;51.174;4.438;2023-03-15T10:40:11;5.13;;;1.60;;
26080;SDS011;13991;51.174;4.438;2023-03-15T10:42:46;11.83;;;2.10;;
26080;SDS011;13991;51.174;4.438;2023-03-15T10:45:19;6.83;;;1.53;;
26080;SDS011;13991;51.174;4.438;2023-03-15T10:47:47;6.60;;;2.10;;
26080;SDS011;13991;51.174;4.438;2023-03-15T10:50:33;9.00;;;1.60;;
26080;SDS011;13991;51.174;4.438;2023-03-15T10:53:07;125.27;;;9.00;;
26080;SDS011;13991;51.174;4.438;2023-03-15T10:55:36;30.87;;;4.07;;
26080;SDS011;13991;51.174;4.438;2023-03-15T10:58:24;4.97;;;1.13;;
26080;SDS011;13991;51.174;4.438;2023-03-15T11:01:05;17.53;;;1.50;;
26080;SDS011;13991;51.174;4.438;2023-03-15T11:03:33;46.07;;;3.63;;
26080;SDS011;13991;51.174;4.438;2023-03-15T11:06:01;18.03;;;1.60;;
26080;SDS011;13991;51.174;4.438;2023-03-15T11:08:39;8.77;;;1.83;;
26080;SDS011;13991;51.174;4.438;2023-03-15T11:11:05;4.23;;;0.90;;
26080;SDS011;13991;51.174;4.438;2023-03-15T11:13:32;13.97;;;1.67;;
26080;SDS011;13991;51.174;4.438;2023-03-15T11:21:28;4.50;;;0.93;;
26080;SDS011;13991;51.174;4.438;2023-03-15T11:23:58;4.47;;;1.20;;
26080;SDS011;13991;51.174;4.438;2023-03-15T11:26:27;3.70;;;1.07;;
26080;SDS011;13991;51.174;4.438;2023-03-15T11:28:58;6.20;;;1.13;;
26080;SDS011;13991;51.174;4.438;2023-03-15T11:31:29;4.17;;;0.90;;
26080;SDS011;13991;51.174;4.438;2023-03-15T11:34:06;4.43;;;1.03;;
26080;SDS011;13991;51.174;4.438;2023-03-15T11:36:32;5.80;;;1.13;;
26080;SDS011;13991;51.174;4.438;2023-03-15T11:39:03;4.53;;;0.77;;
26080;SDS011;13991;51.174;4.438;2023-03-15T11:41:36;5.30;;;0.80;;
26080;SDS011;13991;51.174;4.438;2023-03-15T11:47:01;6.50;;;0.87;;
26080;SDS011;13991;51.174;4.438;2023-03-15T11:52:15;8.73;;;0.80;;
26080;SDS011;13991;51.174;4.438;2023-03-15T11:54:42;10.33;;;1.47;;
26080;SDS011;13991;51.174;4.438;2023-03-15T11:57:44;4.83;;;0.83;;
26080;SDS011;13991;51.174;4.438;2023-03-15T12:02:50;2.53;;;0.83;;
26080;SDS011;13991;51.174;4.438;2023-03-15T12:11:00;6.77;;;1.37;;
26080;SDS011;13991;51.174;4.438;2023-03-15T12:13:33;24.20;;;1.50;;
26080;SDS011;13991;51.174;4.438;2023-03-15T12:15:59;11.87;;;1.40;;
26080;SDS011;13991;51.174;4.438;2023-03-15T12:18:27;7.73;;;1.70;;
26080;SDS011;13991;51.174;4.438;2023-03-15T12:21:11;2.13;;;0.80;;
26080;SDS011;13991;51.174;4.438;2023-03-15T12:24:02;7.60;;;1.53;;
26080;SDS011;13991;51.174;4.438;2023-03-15T12:29:11;10.20;;;1.30;;
26080;SDS011;13991;51.174;4.438;2023-03-15T12:34:48;7.80;;;0.87;;
26080;SDS011;13991;51.174;4.438;2023-03-15T12:37:19;9.47;;;1.70;;
26080;SDS011;13991;51.174;4.438;2023-03-15T12:39:49;3.47;;;0.93;;
26080;SDS011;13991;51.174;4.438;2023-03-15T12:45:40;5.03;;;0.97;;
26080;SDS011;13991;51.174;4.438;2023-03-15T12:56:18;4.30;;;0.80;;
26080;SDS011;13991;51.174;4.438;2023-03-15T12:59:39;4.83;;;0.87;;
26080;SDS011;13991;51.174;4.438;2023-03-15T13:01:54;6.30;;;1.00;;
26080;SDS011;13991;51.174;4.438;2023-03-15T13:04:22;4.53;;;1.37;;
26080;SDS011;13991;51.174;4.438;2023-03-15T13:06:54;4.53;;;0.97;;
26080;SDS011;13991;51.174;4.438;2023-03-15T13:09:43;16.40;;;1.27;;
26080;SDS011;13991;51.174;4.438;2023-03-15T13:12:20;9.83;;;1.97;;
26080;SDS011;13991;51.174;4.438;2023-03-15T13:14:55;6.93;;;1.53;;
26080;SDS011;13991;51.174;4.438;2023-03-15T13:17:40;8.17;;;0.90;;
26080;SDS011;13991;51.174;4.438;2023-03-15T13:23:34;5.50;;;0.93;;
26080;SDS011;13991;51.174;4.438;2023-03-15T13:28:58;5.37;;;0.97;;
26080;SDS011;13991;51.174;4.438;2023-03-15T13:31:34;6.37;;;1.60;;
26080;SDS011;13991;51.174;4.438;2023-03-15T13:34:12;8.90;;;1.37;;
26080;SDS011;13991;51.174;4.438;2023-03-15T13:36:42;17.57;;;1.30;;
26080;SDS011;13991;51.174;4.438;2023-03-15T13:39:20;3.10;;;1.03;;
26080;SDS011;13991;51.174;4.438;2023-03-15T13:41:48;4.33;;;1.30;;
26080;SDS011;13991;51.174;4.438;2023-03-15T13:44:15;6.50;;;1.17;;
26080;SDS011;13991;51.174;4.438;2023-03-15T13:46:47;3.07;;;0.87;;
26080;SDS011;13991;51.174;4.438;2023-03-15T13:49:14;6.63;;;1.50;;
26080;SDS011;13991;51.174;4.438;2023-03-15T13:51:40;4.57;;;1.03;;
26080;SDS011;13991;51.174;4.438;2023-03-15T13:54:09;8.30;;;1.23;;
26080;SDS011;13991;51.174;4.438;2023-03-15T13:57:02;4.10;;;1.23;;
26080;SDS011;13991;51.174;4.438;2023-03-15T13:59:51;10.40;;;0.90;;
26080;SDS011;13991;51.174;4.438;2023-03-15T14:02:22;7.13;;;1.20;;
26080;SDS011;13991;51.174;4.438;2023-03-15T14:05:01;3.53;;;1.30;;
26080;SDS011;13991;51.174;4.438;2023-03-15T14:12:32;3.93;;;1.20;;
26080;SDS011;13991;51.174;4.438;2023-03-15T14:14:58;13.77;;;1.77;;
26080;SDS011;13991;51.174;4.438;2023-03-15T14:17:28;6.90;;;1.47;;
26080;SDS011;13991;51.174;4.438;2023-03-15T14:19:57;8.13;;;0.90;;
26080;SDS011;13991;51.174;4.438;2023-03-15T14:22:33;4.87;;;1.13;;
26080;SDS011;13991;51.174;4.438;2023-03-15T14:25:00;4.40;;;1.07;;
26080;SDS011;13991;51.174;4.438;2023-03-15T14:27:27;6.33;;;1.13;;
26080;SDS011;13991;51.174;4.438;2023-03-15T14:32:29;4.50;;;0.90;;
26080;SDS011;13991;51.174;4.438;2023-03-15T14:35:00;11.80;;;1.37;;
26080;SDS011;13991;51.174;4.438;2023-03-15T14:42:44;5.63;;;0.83;;
26080;SDS011;13991;51.174;4.438;2023-03-15T14:45:09;7.50;;;1.10;;
26080;SDS011;13991;51.174;4.438;2023-03-15T14:47:36;5.70;;;1.00;;
26080;SDS011;13991;51.174;4.438;2023-03-15T14:50:16;7.40;;;1.27;;
26080;SDS011;13991;51.174;4.438;2023-03-15T14:52:44;17.90;;;1.20;;
26080;SDS011;13991;51.174;4.438;2023-03-15T14:55:12;7.70;;;1.30;;
26080;SDS011;13991;51.174;4.438;2023-03-15T14:57:43;6.30;;;1.13;;
26080;SDS011;13991;51.174;4.438;2023-03-15T15:00:13;4.07;;;0.90;;
26080;SDS011;13991;51.174;4.438;2023-03-15T15:02:44;3.17;;;0.77;;
26080;SDS011;13991;51.174;4.438;2023-03-15T15:05:32;9.30;;;0.90;;
26080;SDS011;13991;51.174;4.438;2023-03-15T15:10:37;5.27;;;0.77;;
26080;SDS011;13991;51.174;4.438;2023-03-15T15:13:04;2.77;;;0.60;;
26080;SDS011;13991;51.174;4.438;2023-03-15T15:15:30;8.87;;;1.43;;
26080;SDS011;13991;51.174;4.438;2023-03-15T15:17:56;2.00;;;0.83;;
26080;SDS011;13991;51.174;4.438;2023-03-15T15:20:22;4.23;;;1.07;;
26080;SDS011;13991;51.174;4.438;2023-03-15T15:22:49;2.97;;;0.60;;
26080;SDS011;13991;51.174;4.438;2023-03-15T15:25:16;5.83;;;0.70;;
26080;SDS011;13991;51.174;4.438;2023-03-15T15:27:44;4.60;;;0.70;;
26080;SDS011;13991;51.174;4.438;2023-03-15T15:30:20;5.23;;;1.20;;
26080;SDS011;13991;51.174;4.438;2023-03-15T15:32:47;12.83;;;0.83;;
26080;SDS011;13991;51.174;4.438;2023-03-15T15:35:14;9.00;;;1.20;;
26080;SDS011;13991;51.174;4.438;2023-03-15T15:37:42;3.03;;;0.57;;
26080;SDS011;13991;51.174;4.438;2023-03-15T15:42:41;6.17;;;0.70;;
26080;SDS011;13991;51.174;4.438;2023-03-15T15:45:15;10.10;;;0.80;;
26080;SDS011;13991;51.174;4.438;2023-03-15T15:47:41;3.40;;;0.60;;
26080;SDS011;13991;51.174;4.438;2023-03-15T15:50:12;6.87;;;0.70;;
26080;SDS011;13991;51.174;4.438;2023-03-15T15:52:40;7.20;;;0.50;;
26080;SDS011;13991;51.174;4.438;2023-03-15T15:55:18;11.13;;;0.70;;
26080;SDS011;13991;51.174;4.438;2023-03-15T15:57:49;7.53;;;0.70;;
26080;SDS011;13991;51.174;4.438;2023-03-15T16:00:16;5.47;;;0.70;;
26080;SDS011;13991;51.174;4.438;2023-03-15T16:02:44;13.33;;;0.93;;
26080;SDS011;13991;51.174;4.438;2023-03-15T16:05:11;5.30;;;0.83;;
26080;SDS011;13991;51.174;4.438;2023-03-15T16:07:37;6.57;;;0.57;;